Time;durP1;ratioP1;P1;durP2;ratioP2;P2;SDS_P1;SDS_P2;PMS_P1;PMS_P2;Temp;Humidity;BMP_temperature;BMP_pressure;BME280_temperature;BME280_humidity;BME280_pressure;Samples;Min_cycle;Max_cycle;Signal;HPM_P1;HPM_P2
2021/08/02 00:00:07;;;;;;;8.63;2.03;;;;;;;14.90;74.15;101461.34;5053883;28;20031;-61
2021/08/02 00:02:49;;;;;;;4.75;1.92;;;;;;;14.87;73.41;101451.72;5052905;28;20021;-59
2021/08/02 00:05:16;;;;;;;7.32;1.98;;;;;;;14.84;73.21;101446.53;5053407;28;20025;-60
2021/08/02 00:07:42;;;;;;;7.40;1.98;;;;;;;14.81;73.87;101449.38;5053600;28;20032;-60
2021/08/02 00:10:13;;;;;;;6.30;1.65;;;;;;;14.79;74.77;101445.06;5054147;28;20056;-62
2021/08/02 00:12:47;;;;;;;6.45;2.33;;;;;;;14.80;73.98;101454.78;5053466;28;20052;-62
2021/08/02 00:15:15;;;;;;;6.10;1.65;;;;;;;14.82;74.11;101448.44;5035709;28;20513;-60
2021/08/02 00:17:43;;;;;;;5.72;2.17;;;;;;;14.85;73.98;101452.75;5053183;28;20059;-60
2021/08/02 00:20:15;;;;;;;4.55;1.70;;;;;;;14.86;73.63;101459.78;5053077;28;20033;-60
2021/08/02 00:22:40;;;;;;;6.38;1.65;;;;;;;14.87;73.97;101458.84;5052998;28;20079;-61
2021/08/02 00:25:07;;;;;;;5.38;1.80;;;;;;;14.86;74.33;101463.31;5053137;28;20033;-60
2021/08/02 00:27:33;;;;;;;5.90;1.70;;;;;;;14.87;74.53;101457.06;5053389;28;20025;-60
2021/08/02 00:30:00;;;;;;;4.03;1.75;;;;;;;14.88;74.82;101460.56;5052819;28;20037;-60
2021/08/02 00:32:25;;;;;;;7.43;1.77;;;;;;;14.90;73.76;101456.03;5053072;28;20079;-60
2021/08/02 00:34:51;;;;;;;8.75;1.90;;;;;;;14.91;73.73;101453.28;5053781;28;20035;-60
2021/08/02 00:37:31;;;;;;;6.82;1.80;;;;;;;14.91;75.21;101458.59;5052974;28;20053;-60
2021/08/02 00:40:03;;;;;;;4.90;1.83;;;;;;;14.91;75.16;101447.06;5052744;28;20036;-60
2021/08/02 00:42:35;;;;;;;8.38;1.90;;;;;;;14.90;74.15;101448.88;5057155;28;20033;-60
2021/08/02 00:45:00;;;;;;;3.65;1.60;;;;;;;14.91;74.49;101447.06;5053527;28;20040;-60
2021/08/02 00:47:28;;;;;;;5.90;1.70;;;;;;;14.92;74.92;101456.78;5052761;28;20028;-59
2021/08/02 00:50:02;;;;;;;5.60;1.60;;;;;;;14.91;74.64;101452.38;5052962;28;20318;-60
2021/08/02 00:52:30;;;;;;;4.43;1.80;;;;;;;14.90;74.03;101448.03;5044488;28;20024;-60
2021/08/02 00:54:58;;;;;;;6.05;2.00;;;;;;;14.91;74.07;101452.38;5052798;28;20029;-60
2021/08/02 00:57:27;;;;;;;5.30;1.70;;;;;;;14.94;74.44;101454.91;5016364;28;1059149;-60
2021/08/02 00:59:58;;;;;;;4.53;1.90;;;;;;;14.94;74.83;101456.72;5053858;28;20029;-61
2021/08/02 01:02:25;;;;;;;2.72;1.60;;;;;;;14.90;75.08;101448.88;5053642;28;20025;-61
2021/08/02 01:04:54;;;;;;;5.40;1.60;;;;;;;14.87;75.16;101461.50;5053868;28;20029;-61
2021/08/02 01:07:21;;;;;;;6.40;1.70;;;;;;;14.86;75.18;101446.44;5053998;28;20064;-60
2021/08/02 01:09:48;;;;;;;7.65;1.80;;;;;;;14.84;75.31;101454.53;5035487;28;20387;-60
2021/08/02 01:12:14;;;;;;;6.00;1.95;;;;;;;14.78;74.46;101444.19;5052683;28;20536;-58
2021/08/02 01:14:41;;;;;;;11.55;2.10;;;;;;;14.78;74.85;101457.50;5053903;28;20036;-61
2021/08/02 01:17:08;;;;;;;6.47;1.77;;;;;;;14.78;76.40;101456.66;5053675;28;20021;-60
2021/08/02 01:19:36;;;;;;;3.45;1.65;;;;;;;14.78;75.65;101460.19;5053145;28;20037;-60
2021/08/02 01:22:01;;;;;;;5.68;2.13;;;;;;;14.77;75.47;101462.94;5053217;28;20092;-60
2021/08/02 01:24:27;;;;;;;5.03;1.70;;;;;;;14.74;75.58;101453.28;5052481;28;20033;-61
2021/08/02 01:26:58;;;;;;;9.80;1.90;;;;;;;14.72;75.66;101457.88;5053565;28;20029;-59
2021/08/02 01:30:01;;;;;;;4.72;1.83;;;;;;;14.71;76.43;101453.47;5053082;28;20110;-60
2021/08/02 01:32:27;;;;;;;4.43;1.80;;;;;;;14.69;75.94;101461.56;5033206;28;20037;-59
2021/08/02 01:34:52;;;;;;;6.75;1.75;;;;;;;14.68;75.70;101457.16;5050770;28;20188;-61
2021/08/02 01:37:18;;;;;;;3.47;1.73;;;;;;;14.66;76.22;101461.69;5052385;28;20443;-60
2021/08/02 01:39:51;;;;;;;4.38;1.58;;;;;;;14.63;76.57;101467.16;5053222;28;20036;-61
2021/08/02 01:42:16;;;;;;;7.88;1.65;;;;;;;14.62;76.33;101465.44;5052546;28;20029;-61
2021/08/02 01:44:42;;;;;;;6.90;1.80;;;;;;;14.59;76.61;101462.91;5052577;28;20047;-60
2021/08/02 01:47:37;;;;;;;6.90;1.67;;;;;;;14.59;75.93;101457.59;5053013;28;20103;-61
2021/08/02 01:50:14;;;;;;;6.60;1.80;;;;;;;14.56;76.34;101457.75;5053049;28;20037;-61
2021/08/02 01:53:09;;;;;;;3.97;1.70;;;;;;;14.54;76.45;101451.63;5052219;28;20380;-61
2021/08/02 01:55:35;;;;;;;5.20;1.70;;;;;;;14.49;76.29;101451.88;5033286;28;20033;-60
2021/08/02 01:58:09;;;;;;;3.72;1.67;;;;;;;14.44;77.04;101459.25;5032903;28;20506;-60
2021/08/02 02:00:45;;;;;;;5.20;1.73;;;;;;;14.36;77.05;101462.31;5050183;28;20474;-59
2021/08/02 02:03:20;;;;;;;7.78;1.85;;;;;;;14.31;78.13;101458.13;5052492;28;20051;-60
2021/08/02 02:05:51;;;;;;;5.80;1.92;;;;;;;14.25;78.03;101452.19;5052474;28;20036;-60
2021/08/02 02:08:21;;;;;;;3.78;1.80;;;;;;;14.21;78.01;101447.09;5052609;28;20076;-60
2021/08/02 02:10:51;;;;;;;3.53;1.80;;;;;;;14.11;77.74;101453.84;5051567;28;20467;-60
2021/08/02 02:13:21;;;;;;;4.43;1.95;;;;;;;14.02;78.16;101460.47;5052193;28;20033;-60
2021/08/02 02:15:51;;;;;;;4.50;1.95;;;;;;;13.92;78.65;101455.59;5052799;28;20029;-60
2021/08/02 02:18:18;;;;;;;7.63;1.58;;;;;;;13.84;78.88;101451.59;5052614;28;20021;-60
2021/08/02 02:20:44;;;;;;;8.23;2.47;;;;;;;13.77;78.80;101457.22;5051918;28;20032;-59
2021/08/02 02:23:13;;;;;;;4.32;1.70;;;;;;;13.71;79.03;101461.97;5052142;28;20025;-59
2021/08/02 02:25:40;;;;;;;7.05;2.25;;;;;;;13.64;79.45;101464.06;5051964;28;20386;-59
2021/08/02 02:28:06;;;;;;;6.90;2.17;;;;;;;13.56;79.50;101453.78;5052428;28;20036;-59
2021/08/02 02:30:32;;;;;;;6.00;2.17;;;;;;;13.54;79.42;101466.31;5051987;28;20025;-60
2021/08/02 02:32:58;;;;;;;5.50;1.80;;;;;;;13.50;79.62;101461.19;5051911;28;20108;-60
2021/08/02 02:35:25;;;;;;;5.20;1.73;;;;;;;13.47;79.49;101461.34;5051922;28;20051;-60
2021/08/02 02:37:52;;;;;;;3.85;1.73;;;;;;;13.43;79.64;101460.63;5052598;28;20082;-59
2021/08/02 02:40:18;;;;;;;5.25;1.75;;;;;;;13.37;79.89;101458.25;5051806;28;20132;-60
2021/08/02 02:42:44;;;;;;;4.93;1.67;;;;;;;13.34;79.89;101459.22;5052026;28;20064;-59
2021/08/02 02:45:11;;;;;;;4.18;1.50;;;;;;;13.31;79.75;101459.34;5052005;28;20029;-58
2021/08/02 02:47:37;;;;;;;7.88;1.80;;;;;;;13.26;80.18;101461.34;5033876;28;20556;-60
2021/08/02 02:50:05;;;;;;;4.10;1.80;;;;;;;13.24;80.25;101463.25;5052346;28;20051;-61
2021/08/02 02:52:31;;;;;;;4.35;1.83;;;;;;;13.20;80.26;101466.97;5050964;28;20025;-58
2021/08/02 02:54:58;;;;;;;6.15;1.70;;;;;;;13.17;80.29;101457.34;5051635;28;20087;-60
2021/08/02 02:57:24;;;;;;;4.03;2.05;;;;;;;13.15;80.39;101458.34;5037149;28;20095;-59
2021/08/02 02:59:49;;;;;;;4.78;1.80;;;;;;;13.10;80.36;101467.38;5052128;28;20017;-59
2021/08/02 03:02:16;;;;;;;3.97;1.70;;;;;;;13.08;80.35;101468.38;5051787;28;20044;-60
2021/08/02 03:04:45;;;;;;;3.63;1.77;;;;;;;13.01;80.72;101470.47;5051605;28;20021;-60
2021/08/02 03:07:14;;;;;;;3.42;1.80;;;;;;;12.98;80.57;101473.28;5051589;28;20052;-61
2021/08/02 03:09:42;;;;;;;3.97;1.55;;;;;;;12.96;81.02;101467.16;5051593;28;20025;-61
2021/08/02 03:12:07;;;;;;;3.80;1.73;;;;;;;12.92;81.22;101471.72;5051390;28;20044;-61
2021/08/02 03:14:34;;;;;;;4.60;1.60;;;;;;;12.89;81.16;101473.66;5051996;28;20508;-60
2021/08/02 03:16:59;;;;;;;3.35;1.80;;;;;;;12.84;81.23;101473.88;5051222;28;20021;-62
2021/08/02 03:19:25;;;;;;;4.68;1.77;;;;;;;12.81;81.51;101473.16;5052075;28;20028;-61
2021/08/02 03:21:50;;;;;;;5.30;2.10;;;;;;;12.77;81.69;101472.41;5052022;28;20386;-62
2021/08/02 03:24:20;;;;;;;4.78;1.83;;;;;;;12.75;81.97;101469.84;5051545;28;20037;-61
2021/08/02 03:27:03;;;;;;;4.70;1.92;;;;;;;12.75;82.13;101472.50;5051506;28;20029;-60
2021/08/02 03:29:39;;;;;;;9.07;1.90;;;;;;;12.73;82.01;101465.50;5051810;28;20075;-61
2021/08/02 03:32:09;;;;;;;4.70;1.55;;;;;;;12.70;82.42;101465.63;5051957;28;20029;-61
2021/08/02 03:34:36;;;;;;;3.72;1.98;;;;;;;12.65;83.08;101475.59;5051551;28;20025;-61
2021/08/02 03:37:05;;;;;;;6.18;2.90;;;;;;;12.62;83.50;101472.16;5051577;28;20070;-60
2021/08/02 03:39:32;;;;;;;9.25;2.78;;;;;;;12.62;83.77;101474.81;5051534;28;20100;-62
2021/08/02 03:41:58;;;;;;;6.05;3.33;;;;;;;12.64;83.12;101472.09;5051534;28;20040;-60
2021/08/02 03:44:25;;;;;;;6.40;3.30;;;;;;;12.63;83.76;101467.69;5051390;28;20036;-61
2021/08/02 03:46:52;;;;;;;11.95;3.75;;;;;;;12.64;83.64;101481.88;5051680;28;20037;-61
2021/08/02 03:49:18;;;;;;;7.63;3.00;;;;;;;12.67;83.70;101479.91;5051363;28;20021;-62
2021/08/02 03:51:49;;;;;;;10.25;3.20;;;;;;;12.74;82.89;101481.38;5051545;28;20039;-61
2021/08/02 03:54:15;;;;;;;;;;;;;;;12.76;83.20;101489.28;5051545;28;20051;-62
2021/08/02 03:56:43;;;;;;;7.43;3.05;;;;;;;12.81;83.69;101500.56;5051286;28;20374;-61
2021/08/02 03:59:09;;;;;;;5.78;2.72;;;;;;;12.85;83.26;101491.56;5052247;28;20060;-60
2021/08/02 04:01:42;;;;;;;3.60;2.40;;;;;;;12.88;82.66;101493.22;5055118;28;20061;-60
2021/08/02 04:04:08;;;;;;;8.80;2.70;;;;;;;12.89;82.27;101502.91;5054721;28;20112;-62
2021/08/02 04:06:34;;;;;;;5.95;2.58;;;;;;;12.86;82.64;101501.25;5055109;28;20069;-66
2021/08/02 04:09:01;;;;;;;8.45;2.85;;;;;;;12.82;82.72;101493.50;5055195;28;20025;-62
2021/08/02 04:11:27;;;;;;;7.32;2.40;;;;;;;12.76;82.87;101506.13;5054771;28;20028;-62
2021/08/02 04:13:52;;;;;;;6.63;2.97;;;;;;;12.75;83.12;101503.53;5036328;28;20041;-61
2021/08/02 04:16:17;;;;;;;4.93;2.38;;;;;;;12.67;83.32;101503.81;5054360;28;20029;-61
2021/08/02 04:18:43;;;;;;;3.60;2.10;;;;;;;12.60;83.46;101519.19;5055007;28;20358;-60
2021/08/02 04:21:08;;;;;;;5.65;2.25;;;;;;;12.57;83.72;101507.81;5054604;28;20025;-61
2021/08/02 04:23:33;;;;;;;6.10;2.40;;;;;;;12.57;83.20;101510.47;5054734;28;20095;-61
2021/08/02 04:25:59;;;;;;;6.25;2.15;;;;;;;12.56;83.08;101514.09;5054425;28;20090;-61
2021/08/02 04:28:24;;;;;;;4.35;2.28;;;;;;;12.54;83.83;101514.13;5054618;28;20018;-60
2021/08/02 04:30:49;;;;;;;6.45;2.15;;;;;;;12.55;84.10;101515.00;5054404;28;20025;-60
2021/08/02 04:33:15;;;;;;;10.40;2.28;;;;;;;12.56;83.97;101511.41;5054460;28;20048;-62
2021/08/02 04:35:41;;;;;;;5.30;2.10;;;;;;;12.59;84.28;101517.44;5054146;28;20028;-61
2021/08/02 04:38:06;;;;;;;5.07;2.30;;;;;;;12.61;83.53;101506.78;5054054;28;20080;-60
2021/08/02 04:40:31;;;;;;;4.68;1.95;;;;;;;12.64;83.07;101516.41;5054457;28;20032;-61
2021/08/02 04:42:57;;;;;;;7.57;2.30;;;;;;;12.61;82.99;101515.59;5054634;28;20025;-61
2021/08/02 04:45:22;;;;;;;8.95;2.33;;;;;;;12.63;82.92;101510.22;5054407;28;20036;-64
2021/08/02 04:47:50;;;;;;;5.88;2.30;;;;;;;12.63;83.37;101518.19;5053898;28;20024;-65
2021/08/02 04:50:15;;;;;;;6.00;2.58;;;;;;;12.66;83.47;101517.19;5053833;28;20540;-60
2021/08/02 04:52:42;;;;;;;6.90;2.33;;;;;;;12.68;83.55;101516.19;5054132;28;20154;-63
2021/08/02 04:55:08;;;;;;;6.45;2.13;;;;;;;12.74;83.50;101515.09;5054173;28;20359;-61
2021/08/02 04:57:33;;;;;;;12.13;2.55;;;;;;;12.86;82.71;101514.53;5053740;28;20041;-61
2021/08/02 04:59:59;;;;;;;6.63;2.08;;;;;;;12.88;82.61;101514.50;5053697;28;20024;-60
2021/08/02 05:02:25;;;;;;;8.18;2.20;;;;;;;12.90;83.27;101520.56;5053478;28;20033;-60
2021/08/02 05:04:51;;;;;;;7.15;2.55;;;;;;;12.94;82.94;101517.72;5054070;28;20467;-60
2021/08/02 05:07:16;;;;;;;6.75;2.55;;;;;;;13.00;82.64;101515.72;5053355;28;20033;-62
2021/08/02 05:09:41;;;;;;;3.63;1.90;;;;;;;13.05;82.25;101519.91;5052623;28;20033;-61
2021/08/02 05:12:07;;;;;;;6.80;2.30;;;;;;;13.09;82.60;101523.28;5053412;28;20112;-61
2021/08/02 05:14:32;;;;;;;5.93;2.30;;;;;;;13.18;82.92;101530.00;5053518;28;20036;-60
2021/08/02 05:16:57;;;;;;;7.70;2.83;;;;;;;13.30;82.71;101531.25;5053058;28;20381;-61
2021/08/02 05:19:23;;;;;;;4.70;2.55;;;;;;;13.39;82.08;101529.06;5053254;28;20041;-61
2021/08/02 05:21:48;;;;;;;7.82;2.40;;;;;;;13.48;81.84;101530.44;5052799;28;20021;-60
2021/08/02 05:24:13;;;;;;;4.63;2.20;;;;;;;13.55;81.16;101528.34;5053468;28;20021;-62
2021/08/02 05:26:39;;;;;;;6.97;2.40;;;;;;;13.59;81.54;101529.94;5053067;28;20455;-60
2021/08/02 05:29:04;;;;;;;8.05;2.60;;;;;;;13.67;80.34;101534.91;5052851;28;20029;-60
2021/08/02 05:31:29;;;;;;;4.03;2.30;;;;;;;13.71;80.52;101529.38;5052608;28;20028;-60
2021/08/02 05:33:55;;;;;;;5.60;2.50;;;;;;;13.75;79.80;101530.94;5053379;28;20103;-60
2021/08/02 05:36:20;;;;;;;9.02;2.35;;;;;;;13.81;79.17;101540.47;5052884;28;20025;-61
2021/08/02 05:38:46;;;;;;;5.75;2.40;;;;;;;13.85;78.98;101541.16;5052247;28;20087;-60
2021/08/02 05:41:11;;;;;;;5.80;2.15;;;;;;;13.89;78.60;101543.59;5053037;28;20043;-63
2021/08/02 05:43:36;;;;;;;4.72;2.28;;;;;;;13.92;78.62;101545.25;5052954;28;20486;-63
2021/08/02 05:46:02;;;;;;;7.65;2.28;;;;;;;13.95;78.61;101539.78;5052124;28;20681;-60
2021/08/02 05:48:27;;;;;;;8.07;2.30;;;;;;;14.03;78.00;101547.44;5052760;28;20383;-61
2021/08/02 05:50:52;;;;;;;6.70;2.85;;;;;;;14.05;78.08;101548.19;5052610;28;20076;-61
2021/08/02 05:53:18;;;;;;;5.15;2.30;;;;;;;14.08;78.18;101545.41;5051801;28;20036;-61
2021/08/02 05:55:43;;;;;;;12.45;2.60;;;;;;;14.13;78.39;101543.38;5051322;28;20036;-61
2021/08/02 05:58:10;;;;;;;13.05;2.95;;;;;;;14.21;77.61;101545.66;5050245;28;20089;-62
2021/08/02 06:00:36;;;;;;;11.93;2.40;;;;;;;14.30;77.39;101542.53;5050696;28;20025;-60
2021/08/02 06:03:01;;;;;;;6.25;2.55;;;;;;;14.38;76.62;101544.81;5051117;28;20048;-62
2021/08/02 06:05:26;;;;;;;5.93;2.30;;;;;;;14.49;76.03;101546.94;5051050;28;20474;-61
2021/08/02 06:07:51;;;;;;;8.38;2.45;;;;;;;14.55;75.70;101549.31;5050811;28;20037;-60
2021/08/02 06:10:17;;;;;;;5.10;2.15;;;;;;;14.62;75.12;101545.41;5050699;28;20367;-60
2021/08/02 06:12:42;;;;;;;10.73;2.13;;;;;;;14.71;73.94;101544.97;5052758;28;20366;-62
2021/08/02 06:15:10;;;;;;;5.10;2.60;;;;;;;14.77;74.21;101541.13;5051595;28;20021;-62
2021/08/02 06:17:35;;;;;;;6.72;2.42;;;;;;;14.85;73.49;101544.25;5051593;28;20025;-61
2021/08/02 06:20:01;;;;;;;7.57;2.17;;;;;;;14.96;73.04;101540.16;5046361;28;20038;-58
2021/08/02 06:22:26;;;;;;;4.97;1.98;;;;;;;15.02;72.83;101539.84;5041530;28;20478;-59
2021/08/02 06:24:51;;;;;;;7.80;1.90;;;;;;;15.08;71.43;101543.03;5045859;28;20029;-60
2021/08/02 06:27:17;;;;;;;3.63;1.73;;;;;;;15.11;72.67;101542.03;5047014;28;20033;-59
2021/08/02 06:29:42;;;;;;;6.78;1.98;;;;;;;15.18;71.63;101542.56;5051096;28;20061;-59
2021/08/02 06:32:08;;;;;;;5.00;1.95;;;;;;;15.30;72.18;101551.72;5052042;28;20017;-61
2021/08/02 06:34:34;;;;;;;7.75;2.15;;;;;;;15.33;71.94;101548.88;5051257;28;20028;-60
2021/08/02 06:36:59;;;;;;;6.85;2.10;;;;;;;15.37;71.52;101548.66;5052534;28;20078;-60
2021/08/02 06:39:24;;;;;;;5.28;2.00;;;;;;;15.47;71.20;101540.13;5052025;28;20036;-60
2021/08/02 06:41:50;;;;;;;3.17;1.80;;;;;;;15.45;70.79;101544.69;5050038;28;20075;-60
2021/08/02 06:44:15;;;;;;;7.28;1.95;;;;;;;15.51;70.87;101547.91;5050382;28;20021;-59
2021/08/02 06:46:41;;;;;;;5.45;2.00;;;;;;;15.63;71.45;101549.03;5050547;28;20390;-60
2021/08/02 06:49:06;;;;;;;4.93;1.67;;;;;;;15.88;68.83;101547.69;5049928;28;20067;-61
2021/08/02 06:51:31;;;;;;;5.28;1.92;;;;;;;16.17;68.58;101547.88;5050070;28;20108;-60
2021/08/02 06:53:57;;;;;;;3.90;1.63;;;;;;;16.40;66.43;101543.03;5049888;28;20083;-62
2021/08/02 06:56:23;;;;;;;3.55;1.70;;;;;;;16.44;64.96;101548.06;5051118;28;20116;-70
2021/08/02 06:58:48;;;;;;;7.57;1.90;;;;;;;16.48;66.28;101552.31;5050530;28;20029;-60
2021/08/02 07:01:14;;;;;;;3.60;1.75;;;;;;;16.44;62.57;101550.75;5050838;28;20021;-62
2021/08/02 07:03:40;;;;;;;3.80;1.80;;;;;;;16.43;62.85;101557.03;5048903;28;20459;-62
2021/08/02 07:06:05;;;;;;;3.45;1.80;;;;;;;16.46;63.54;101558.69;5050716;28;20055;-61
2021/08/02 07:08:31;;;;;;;4.95;1.60;;;;;;;16.57;62.46;101558.06;5051123;28;20048;-60
2021/08/02 07:10:56;;;;;;;3.28;1.65;;;;;;;16.81;62.34;101553.94;5043439;28;20055;-63
2021/08/02 07:13:21;;;;;;;6.00;1.60;;;;;;;17.07;61.29;101551.50;5043552;28;20029;-63
2021/08/02 07:15:47;;;;;;;3.75;1.52;;;;;;;17.37;62.29;101558.63;5049922;28;20128;-60
2021/08/02 07:18:12;;;;;;;2.75;1.55;;;;;;;17.64;61.72;101553.34;5050114;28;20029;-59
2021/08/02 07:20:38;;;;;;;4.68;1.70;;;;;;;17.46;61.33;101559.88;5045102;28;20026;-62
2021/08/02 07:23:04;;;;;;;4.80;1.85;;;;;;;17.14;62.39;101560.06;5030734;28;20430;-63
2021/08/02 07:25:29;;;;;;;6.05;1.67;;;;;;;16.94;65.21;101567.44;5029367;28;20037;-58
2021/08/02 07:27:54;;;;;;;6.80;1.70;;;;;;;16.84;64.34;101564.47;5038500;28;20033;-65
2021/08/02 07:30:20;;;;;;;10.55;2.10;;;;;;;16.76;65.25;101574.75;5050713;28;20025;-62
2021/08/02 07:32:45;;;;;;;5.22;1.80;;;;;;;16.73;64.79;101571.38;5049352;28;20032;-60
2021/08/02 07:35:11;;;;;;;6.32;2.25;;;;;;;16.69;66.79;101574.25;5052412;28;20028;-60
2021/08/02 07:37:41;;;;;;;8.77;1.92;;;;;;;16.53;66.68;101589.47;5055290;28;20115;-62
2021/08/02 07:40:07;;;;;;;5.97;1.77;;;;;;;16.40;66.98;101583.97;5054956;28;20060;-65
2021/08/02 07:42:32;;;;;;;8.48;2.65;;;;;;;16.28;67.87;101590.00;5054133;28;20017;-62
2021/08/02 07:44:58;;;;;;;4.75;1.90;;;;;;;16.07;70.46;101586.75;5053147;28;20051;-60
2021/08/02 07:47:23;;;;;;;4.47;1.95;;;;;;;15.79;73.54;101596.25;5044347;28;20025;-61
2021/08/02 07:49:48;;;;;;;7.40;2.40;;;;;;;15.56;75.67;101595.69;5045726;28;20036;-60
2021/08/02 07:52:14;;;;;;;8.32;2.67;;;;;;;15.40;75.50;101596.50;5054496;28;20069;-65
2021/08/02 07:54:39;;;;;;;7.75;2.78;;;;;;;15.24;76.22;101596.47;5055082;28;20020;-62
2021/08/02 07:57:04;;;;;;;8.48;2.17;;;;;;;14.98;77.84;101608.47;5046071;28;20128;-62
2021/08/02 07:59:29;;;;;;;7.38;2.30;;;;;;;14.95;78.57;101600.66;5054433;28;20368;-61
2021/08/02 08:01:55;;;;;;;7.93;2.20;;;;;;;15.11;78.29;101603.38;5053852;28;20032;-60
2021/08/02 08:04:20;;;;;;;7.00;2.45;;;;;;;15.19;79.07;101597.63;5053537;28;20119;-61
2021/08/02 08:06:46;;;;;;;7.57;2.30;;;;;;;15.35;79.04;101614.56;5034181;28;20443;-61
2021/08/02 08:09:12;;;;;;;6.43;2.40;;;;;;;15.38;77.96;101614.44;5055032;28;20124;-62
2021/08/02 08:11:37;;;;;;;4.95;2.20;;;;;;;15.38;78.61;101608.22;5051951;28;20032;-63
2021/08/02 08:14:03;;;;;;;7.38;1.92;;;;;;;15.44;75.39;101602.56;5054319;28;20405;-64
2021/08/02 08:16:28;;;;;;;6.18;2.03;;;;;;;15.49;76.34;101605.00;5054445;28;20474;-63
2021/08/02 08:18:55;;;;;;;7.38;2.15;;;;;;;15.54;76.89;101606.47;5037351;28;20086;-62
2021/08/02 08:21:20;;;;;;;7.72;2.47;;;;;;;15.72;76.38;101599.25;5043349;28;20047;-61
2021/08/02 08:23:45;;;;;;;8.00;2.65;;;;;;;15.84;75.56;101599.56;5053283;28;20474;-60
2021/08/02 08:26:11;;;;;;;6.80;2.40;;;;;;;16.00;77.87;101605.78;5053551;28;20163;-60
2021/08/02 08:28:36;;;;;;;8.27;2.63;;;;;;;16.22;74.92;101602.75;5051632;28;20033;-63
2021/08/02 08:31:01;;;;;;;6.30;2.42;;;;;;;16.42;76.11;101606.13;5053664;28;20493;-61
2021/08/02 08:33:27;;;;;;;4.22;1.95;;;;;;;16.51;74.30;101604.75;5053114;28;20029;-61
2021/08/02 08:35:54;;;;;;;6.38;2.30;;;;;;;16.68;75.24;101604.59;5048884;28;20383;-60
2021/08/02 08:38:19;;;;;;;7.45;2.20;;;;;;;16.90;71.14;101608.69;5052580;28;20115;-63
2021/08/02 08:40:47;;;;;;;5.57;1.92;;;;;;;17.15;70.20;101604.59;5054060;28;20155;-60
2021/08/02 08:43:18;;;;;;;4.80;2.25;;;;;;;17.19;69.22;101606.97;5053246;28;20025;-61
2021/08/02 08:45:44;;;;;;;5.60;2.10;;;;;;;17.26;69.93;101604.78;5052643;28;20041;-60
2021/08/02 08:48:09;;;;;;;4.57;1.90;;;;;;;17.36;67.45;101607.78;5052428;28;20482;-62
2021/08/02 08:50:38;;;;;;;3.38;1.85;;;;;;;17.51;65.63;101606.81;5053327;28;20091;-61
2021/08/02 08:53:04;;;;;;;7.30;2.08;;;;;;;17.60;67.49;101607.22;5032803;28;20021;-61
2021/08/02 08:55:30;;;;;;;4.43;1.70;;;;;;;17.87;65.55;101598.41;5030285;28;20033;-62
2021/08/02 08:57:56;;;;;;;4.85;1.80;;;;;;;17.99;66.95;101603.00;5048687;28;20057;-60
2021/08/02 09:00:24;;;;;;;3.70;1.75;;;;;;;18.12;64.71;101603.06;5051332;28;20029;-61
2021/08/02 09:02:51;;;;;;;7.75;1.90;;;;;;;18.14;63.59;101602.00;5052729;28;20029;-61
2021/08/02 09:05:17;;;;;;;6.80;2.65;;;;;;;18.42;67.79;101612.75;5043143;28;20033;-60
2021/08/02 09:07:44;;;;;;;4.95;2.00;;;;;;;18.74;61.59;101612.44;5052951;28;20422;-61
2021/08/02 09:10:21;;;;;;;6.35;2.33;;;;;;;18.70;61.43;101613.63;5048878;28;20096;-61
2021/08/02 09:12:52;;;;;;;4.22;2.03;;;;;;;18.64;60.99;101614.88;5045765;28;20033;-59
2021/08/02 09:15:29;;;;;;;7.97;1.90;;;;;;;19.06;59.09;101610.28;5052791;28;20086;-60
2021/08/02 09:17:54;;;;;;;5.68;1.70;;;;;;;19.16;57.85;101610.50;5053717;28;20033;-61
2021/08/02 09:20:21;;;;;;;6.65;2.45;;;;;;;19.32;60.86;101611.16;5053323;28;20104;-60
2021/08/02 09:22:48;;;;;;;6.28;2.05;;;;;;;19.58;59.27;101618.38;5053247;28;20112;-59
2021/08/02 09:25:16;;;;;;;5.97;2.30;;;;;;;19.85;58.71;101610.19;5054043;28;20075;-60
2021/08/02 09:27:43;;;;;;;2.78;1.98;;;;;;;20.06;58.06;101613.13;5053283;28;20054;-59
2021/08/02 09:30:19;;;;;;;8.40;2.10;;;;;;;20.45;56.64;101608.47;5052828;28;20029;-62
2021/08/02 09:32:53;;;;;;;5.82;1.80;;;;;;;20.65;53.49;101611.50;5034851;28;20379;-60
2021/08/02 09:35:51;;;;;;;9.73;5.70;;;;;;;20.69;56.98;101612.13;5053658;28;20036;-62
2021/08/02 09:38:17;;;;;;;6.03;1.80;;;;;;;21.35;51.68;101614.31;4991787;28;20038;-60
2021/08/02 09:40:56;;;;;;;5.18;1.77;;;;;;;22.15;48.73;101610.66;4991505;28;20074;-60
2021/08/02 09:43:35;;;;;;;5.13;1.70;;;;;;;22.12;49.84;101618.13;4991301;28;20034;-61
2021/08/02 09:46:03;;;;;;;4.47;1.90;;;;;;;21.36;50.15;101618.72;4991142;28;20027;-63
2021/08/02 09:48:40;;;;;;;8.40;2.00;;;;;;;20.85;50.40;101625.34;4990382;28;20136;-61
2021/08/02 09:51:25;;;;;;;6.30;1.77;;;;;;;20.39;50.94;101621.53;4991261;28;20030;-60
2021/08/02 09:53:53;;;;;;;5.57;1.75;;;;;;;20.16;53.54;101625.94;4990962;28;20129;-60
2021/08/02 09:56:25;;;;;;;7.85;2.00;;;;;;;20.04;53.56;101625.84;4990731;28;20444;-60
2021/08/02 09:58:50;;;;;;;6.57;2.10;;;;;;;19.92;57.12;101619.53;4990537;28;20113;-61
2021/08/02 10:01:18;;;;;;;6.82;1.90;;;;;;;19.81;55.54;101620.25;4991517;28;20153;-59
2021/08/02 10:03:44;;;;;;;7.05;1.80;;;;;;;19.48;53.22;101616.31;4990970;28;20031;-61
2021/08/02 10:06:11;;;;;;;5.10;1.73;;;;;;;19.25;54.19;101617.06;4991481;28;20146;-62
2021/08/02 10:08:37;;;;;;;5.32;1.75;;;;;;;18.88;55.42;101622.25;4974780;28;20049;-62
2021/08/02 10:11:04;;;;;;;4.68;1.90;;;;;;;19.02;54.58;101626.72;5003521;28;20030;-60
2021/08/02 10:13:33;;;;;;;3.85;1.80;;;;;;;19.19;54.01;101628.22;5001353;28;20046;-60
2021/08/02 10:16:04;;;;;;;5.55;1.63;;;;;;;19.25;52.93;101631.34;5032389;28;20387;-62
2021/08/02 10:18:30;;;;;;;6.43;1.88;;;;;;;19.37;52.86;101628.78;5032624;28;20025;-62
2021/08/02 10:21:02;;;;;;;5.07;1.70;;;;;;;19.77;51.22;101623.25;5033095;28;20048;-62
2021/08/02 10:23:28;;;;;;;6.13;1.70;;;;;;;20.36;49.68;101627.13;5031808;28;20034;-61
2021/08/02 10:25:53;;;;;;;4.03;1.90;;;;;;;21.58;46.79;101620.59;5032140;28;20037;-61
2021/08/02 10:28:19;;;;;;;4.65;1.65;;;;;;;22.27;46.08;101615.00;5032620;28;20040;-60
2021/08/02 10:30:47;;;;;;;4.72;1.75;;;;;;;23.64;40.08;101617.06;5032724;28;20030;-61
2021/08/02 10:33:13;;;;;;;3.38;1.45;;;;;;;23.67;39.64;101614.94;5031540;28;20022;-61
2021/08/02 10:35:40;;;;;;;6.53;1.60;;;;;;;23.39;40.52;101614.66;5031905;28;20038;-61
2021/08/02 10:38:11;;;;;;;5.78;1.60;;;;;;;24.07;41.24;101609.69;5032404;28;20045;-61
2021/08/02 10:40:50;;;;;;;2.25;1.17;;;;;;;25.25;35.73;101610.59;5014586;28;20099;-61
2021/08/02 10:43:30;;;;;;;5.60;1.50;;;;;;;25.62;34.99;101601.66;5032350;28;20026;-60
2021/08/02 10:45:57;;;;;;;4.20;1.40;;;;;;;24.69;37.15;101607.66;5031173;28;20029;-61
2021/08/02 10:48:28;;;;;;;5.30;1.50;;;;;;;24.80;36.96;101610.22;5032136;28;20033;-61
2021/08/02 10:50:53;;;;;;;6.18;1.70;;;;;;;24.62;37.72;101617.34;5032193;28;20414;-61
2021/08/02 10:53:19;;;;;;;6.03;1.92;;;;;;;25.66;34.19;101608.47;5032144;28;20076;-61
2021/08/02 10:55:52;;;;;;;5.38;1.67;;;;;;;25.09;36.85;101609.34;5032081;28;20462;-61
2021/08/02 10:58:24;;;;;;;2.80;1.48;;;;;;;24.58;36.62;101614.06;5051957;28;20139;-60
2021/08/02 11:01:01;;;;;;;4.53;1.50;;;;;;;24.04;39.12;101608.09;5052006;28;20033;-61
2021/08/02 11:03:38;;;;;;;4.43;1.73;;;;;;;23.61;39.60;101620.03;5052081;28;20032;-61
2021/08/02 11:06:16;;;;;;;3.60;1.40;;;;;;;23.53;38.90;101615.28;5051859;28;20032;-60
2021/08/02 11:08:46;;;;;;;1.70;1.23;;;;;;;23.30;41.19;101604.66;5054065;28;20102;-61
2021/08/02 11:11:19;;;;;;;3.30;1.30;;;;;;;22.98;41.32;101613.69;5055410;28;20474;-61
2021/08/02 11:13:44;;;;;;;4.20;1.42;;;;;;;22.86;40.37;101618.25;5056189;28;20048;-62
2021/08/02 11:16:10;;;;;;;5.90;1.42;;;;;;;22.96;39.76;101618.34;5055465;28;20100;-62
2021/08/02 11:18:35;;;;;;;4.60;1.73;;;;;;;23.30;41.42;101618.19;5055375;28;20057;-61
2021/08/02 11:21:01;;;;;;;3.10;1.80;;;;;;;24.04;40.17;101614.41;5056154;28;20051;-61
2021/08/02 11:23:31;;;;;;;5.30;1.80;;;;;;;24.45;37.86;101621.56;5055690;28;20118;-60
2021/08/02 11:26:04;;;;;;;2.63;1.40;;;;;;;23.75;38.97;101632.31;5054982;28;20063;-61